Time;durP1;ratioP1;P1;durP2;ratioP2;P2;SDS_P1;SDS_P2;PMS_P1;PMS_P2;Temp;Humidity;BMP_temperature;BMP_pressure;BME280_temperature;BME280_humidity;BME280_pressure;Samples;Min_cycle;Max_cycle;Signal;HPM_P1;HPM_P2
2022/04/02 00:00:20;;;;;;;5.28;1.80;;;18.00;52.50;;;;;;6145358;23;20157;-84
2022/04/02 00:02:47;;;;;;;3.05;1.70;;;18.10;52.80;;;;;;6120731;23;20157;-88
2022/04/02 00:05:12;;;;;;;3.95;1.67;;;18.00;52.30;;;;;;6169893;23;20160;-88
2022/04/02 00:07:39;;;;;;;2.55;1.60;;;18.10;52.30;;;;;;6247277;23;20255;-83
2022/04/02 00:10:07;;;;;;;3.05;1.60;;;18.10;52.30;;;;;;6145434;23;20180;-86
2022/04/02 00:12:33;;;;;;;2.88;1.70;;;18.10;52.10;;;;;;6247749;23;20183;-84
2022/04/02 00:14:59;;;;;;;2.90;1.55;;;18.10;51.90;;;;;;6247617;23;20554;-85
2022/04/02 00:17:25;;;;;;;3.58;1.50;;;18.20;52.00;;;;;;6221216;23;20160;-82
2022/04/02 00:19:52;;;;;;;2.45;1.58;;;18.10;52.20;;;;;;6220596;23;20439;-85
2022/04/02 00:22:18;;;;;;;2.60;1.88;;;18.10;52.60;;;;;;6195747;23;20485;-88
2022/04/02 00:24:46;;;;;;;2.70;1.63;;;18.10;52.40;;;;;;6220467;23;20584;-84
2022/04/02 00:27:12;;;;;;;3.83;1.63;;;18.00;52.50;;;;;;6220707;23;20601;-84
2022/04/02 00:29:38;;;;;;;2.72;1.73;;;18.10;52.00;;;;;;6220429;23;20130;-84
2022/04/02 00:32:06;;;;;;;3.28;1.63;;;18.00;52.40;;;;;;6220465;23;20153;-86
2022/04/02 00:34:32;;;;;;;3.20;1.70;;;18.00;52.60;;;;;;6247330;23;20129;-83
2022/04/02 00:36:58;;;;;;;2.13;1.70;;;18.00;52.20;;;;;;6220862;23;20195;-84
2022/04/02 00:39:24;;;;;;;1.70;1.50;;;18.00;52.30;;;;;;6220380;23;20228;-83
2022/04/02 00:41:50;;;;;;;3.58;1.70;;;18.00;52.40;;;;;;6220625;23;20247;-83
2022/04/02 00:44:17;;;;;;;3.85;1.65;;;18.00;52.60;;;;;;6220408;23;20565;-82
2022/04/02 00:46:43;;;;;;;4.88;1.65;;;18.00;52.50;;;;;;6220143;23;20184;-86
2022/04/02 00:49:11;;;;;;;4.05;1.70;;;18.00;52.50;;;;;;6220579;23;20160;-88
2022/04/02 00:51:41;;;;;;;4.13;1.70;;;18.00;52.40;;;;;;6195768;23;20153;-81
2022/04/02 00:54:14;;;;;;;2.40;1.58;;;17.90;52.40;;;;;;6220898;23;20146;-83
2022/04/02 00:56:40;;;;;;;2.08;1.60;;;18.00;51.80;;;;;;6220703;23;20145;-85
2022/04/02 00:59:08;;;;;;;3.55;1.60;;;18.00;52.30;;;;;;6246994;23;20207;-86
2022/04/02 01:01:35;;;;;;;2.08;1.60;;;18.00;52.60;;;;;;6220396;23;20203;-88
2022/04/02 01:04:03;;;;;;;4.70;2.13;;;18.00;52.60;;;;;;6145115;23;20160;-84
2022/04/02 01:06:30;;;;;;;2.15;1.75;;;18.00;52.20;;;;;;6169663;23;20204;-88
2022/04/02 01:08:57;;;;;;;2.97;1.63;;;18.00;52.20;;;;;;6170338;23;20649;-86
2022/04/02 01:11:39;;;;;;;3.55;1.88;;;18.00;52.30;;;;;;6144531;23;20189;-86
2022/04/02 01:14:08;;;;;;;2.83;1.38;;;18.00;52.30;;;;;;6153190;23;20241;-84
2022/04/02 01:16:37;;;;;;;3.42;1.90;;;18.00;51.90;;;;;;6145277;23;20581;-82
2022/04/02 01:19:06;;;;;;;3.15;1.48;;;18.00;52.60;;;;;;6169521;23;20585;-85
2022/04/02 01:21:36;;;;;;;3.83;2.10;;;18.00;52.30;;;;;;6169652;23;20153;-84
2022/04/02 01:24:04;;;;;;;2.15;1.58;;;18.00;52.50;;;;;;6145394;23;20160;-87
2022/04/02 01:26:32;;;;;;;2.10;1.58;;;18.00;52.20;;;;;;6169499;23;20181;-81
2022/04/02 01:29:01;;;;;;;2.97;1.60;;;18.00;52.50;;;;;;6144699;23;20484;-86
2022/04/02 01:31:26;;;;;;;2.75;1.83;;;18.00;52.00;;;;;;6169227;23;20735;-88
2022/04/02 01:33:54;;;;;;;2.08;1.52;;;18.00;52.40;;;;;;6219901;23;20149;-83
2022/04/02 01:36:22;;;;;;;3.50;1.63;;;18.00;52.80;;;;;;6144805;23;20165;-88
2022/04/02 01:38:49;;;;;;;4.55;1.77;;;18.00;51.80;;;;;;6144862;23;20153;-87
2022/04/02 01:41:17;;;;;;;3.08;1.65;;;18.00;51.90;;;;;;6169353;23;20651;-84
2022/04/02 01:43:44;;;;;;;2.33;1.75;;;17.90;51.80;;;;;;6120317;23;20156;-87
2022/04/02 01:46:11;;;;;;;2.42;1.70;;;18.00;51.90;;;;;;6169002;23;20245;-85
2022/04/02 01:48:38;;;;;;;1.83;1.52;;;18.00;51.60;;;;;;6169276;23;20223;-86
2022/04/02 01:51:04;;;;;;;3.67;1.60;;;17.90;51.80;;;;;;6169025;23;20179;-82
2022/04/02 01:53:31;;;;;;;2.33;1.60;;;18.00;51.80;;;;;;6220455;23;20479;-88
2022/04/02 01:55:58;;;;;;;2.08;1.27;;;18.00;52.00;;;;;;6144514;23;20159;-86
2022/04/02 01:58:23;;;;;;;2.22;1.83;;;18.00;51.80;;;;;;6220244;23;20177;-82
2022/04/02 02:00:49;;;;;;;2.33;1.63;;;17.90;52.10;;;;;;6219838;23;20134;-85
2022/04/02 02:03:17;;;;;;;2.00;1.48;;;17.90;52.40;;;;;;6219565;23;20155;-87
2022/04/02 02:05:45;;;;;;;3.30;1.90;;;17.90;52.00;;;;;;6144157;23;20159;-82
2022/04/02 02:08:16;;;;;;;2.80;1.67;;;18.00;51.90;;;;;;6194200;23;20235;-86
2022/04/02 02:10:44;;;;;;;2.95;1.60;;;18.00;51.70;;;;;;6169788;23;20153;-83
2022/04/02 02:13:12;;;;;;;2.67;1.90;;;18.00;51.60;;;;;;6169523;23;20157;-86
2022/04/02 02:15:41;;;;;;;2.17;1.40;;;18.00;51.90;;;;;;6168971;23;20156;-83
2022/04/02 02:18:09;;;;;;;2.95;1.70;;;18.00;51.40;;;;;;6144572;23;20172;-87
2022/04/02 02:20:38;;;;;;;2.03;1.45;;;18.00;51.30;;;;;;6168870;23;20156;-82
2022/04/02 02:23:04;;;;;;;1.92;1.30;;;18.00;52.10;;;;;;6168977;23;20149;-84
2022/04/02 02:25:34;;;;;;;2.22;1.63;;;18.00;51.90;;;;;;6219750;23;20161;-87
2022/04/02 02:27:59;;;;;;;2.92;1.52;;;18.00;51.40;;;;;;6170642;23;20259;-84
2022/04/02 02:30:25;;;;;;;1.88;1.40;;;18.00;51.90;;;;;;6219297;23;20568;-85
2022/04/02 02:35:48;;;;;;;3.28;1.65;;;17.90;52.10;;;;;;6219331;23;20180;-86
2022/04/02 02:35:51;;;;;;;2.67;1.80;;;17.90;51.60;;;;;;6202953;23;20138;-81
2022/04/02 02:38:20;;;;;;;2.38;1.70;;;18.00;51.60;;;;;;6219215;23;20168;-85
2022/04/02 02:40:46;;;;;;;2.83;1.70;;;17.90;51.50;;;;;;6170766;23;20581;-85
2022/04/02 02:43:12;;;;;;;4.05;1.70;;;17.90;51.50;;;;;;6219265;23;20156;-81
2022/04/02 02:45:38;;;;;;;4.82;1.67;;;17.90;52.20;;;;;;6219348;23;20157;-87
2022/04/02 02:48:04;;;;;;;3.90;1.80;;;17.90;52.00;;;;;;6194108;23;20593;-85
2022/04/02 02:50:30;;;;;;;3.00;1.90;;;17.90;52.20;;;;;;6194397;23;20125;-86
2022/04/02 02:52:57;;;;;;;1.88;1.50;;;17.90;51.60;;;;;;6245883;23;20168;-85
2022/04/02 02:55:23;;;;;;;3.03;1.70;;;18.00;51.90;;;;;;6246007;23;20134;-82
2022/04/02 02:57:49;;;;;;;2.80;1.50;;;17.90;51.60;;;;;;6245772;23;20165;-86
2022/04/02 03:00:16;;;;;;;4.30;1.90;;;17.90;51.60;;;;;;6245865;23;20129;-84
2022/04/02 03:02:42;;;;;;;2.33;1.65;;;17.90;51.90;;;;;;6246123;23;20133;-86
2022/04/02 03:05:12;;;;;;;2.15;1.67;;;17.90;51.70;;;;;;6219222;23;20137;-83
2022/04/02 03:07:48;;;;;;;2.75;1.70;;;18.00;51.80;;;;;;6218874;23;20173;-84
2022/04/02 03:10:15;;;;;;;1.80;1.60;;;17.80;51.30;;;;;;6220878;23;20156;-84
2022/04/02 03:12:42;;;;;;;1.95;1.60;;;17.90;52.00;;;;;;6194236;23;20148;-89
2022/04/02 03:15:08;;;;;;;2.95;1.60;;;17.90;51.60;;;;;;6219527;23;20138;-84
2022/04/02 03:17:34;;;;;;;1.92;1.73;;;18.00;51.20;;;;;;6245914;23;20134;-84
2022/04/02 03:20:00;;;;;;;4.75;2.30;;;18.00;51.70;;;;;;6219109;23;20200;-84
2022/04/02 03:22:27;;;;;;;2.47;1.50;;;17.90;51.20;;;;;;6245949;23;20130;-86
2022/04/02 03:24:54;;;;;;;2.95;1.60;;;18.00;51.30;;;;;;6219829;23;20184;-82
2022/04/02 03:27:21;;;;;;;2.60;1.85;;;18.00;51.70;;;;;;6219089;23;20482;-87
2022/04/02 03:29:48;;;;;;;2.38;1.70;;;18.00;51.00;;;;;;6168659;23;20216;-83
2022/04/02 03:32:15;;;;;;;2.30;1.70;;;18.00;51.40;;;;;;6143948;23;20656;-85
2022/04/02 03:34:42;;;;;;;2.75;1.70;;;18.00;51.40;;;;;;6143690;23;20149;-86
2022/04/02 03:37:09;;;;;;;2.55;1.83;;;18.00;51.40;;;;;;6144057;23;20153;-84
2022/04/02 03:39:36;;;;;;;2.22;1.60;;;18.00;51.30;;;;;;6143865;23;20439;-87
2022/04/02 03:42:04;;;;;;;2.85;2.00;;;17.90;51.10;;;;;;6168322;23;20497;-85
2022/04/02 03:44:31;;;;;;;3.67;1.60;;;17.90;51.50;;;;;;6145195;23;20173;-86
2022/04/02 03:47:12;;;;;;;2.40;1.70;;;17.90;51.20;;;;;;6143814;23;20169;-86
2022/04/02 03:49:40;;;;;;;3.80;2.17;;;17.90;51.70;;;;;;6222717;23;20589;-84
2022/04/02 03:52:06;;;;;;;2.33;1.80;;;17.90;51.30;;;;;;6219177;23;20225;-83
2022/04/02 03:54:35;;;;;;;1.98;1.50;;;18.00;51.40;;;;;;6245948;23;20130;-84
2022/04/02 03:57:03;;;;;;;2.10;1.70;;;18.00;50.80;;;;;;6221459;23;20133;-86
2022/04/02 03:59:31;;;;;;;2.80;1.77;;;17.90;51.40;;;;;;6221174;23;20137;-83
2022/04/02 04:01:59;;;;;;;2.05;1.80;;;17.90;51.70;;;;;;6145521;23;20157;-84
2022/04/02 04:04:25;;;;;;;2.35;1.70;;;17.90;51.80;;;;;;6145639;23;20159;-86
2022/04/02 04:06:53;;;;;;;3.30;1.70;;;17.80;51.70;;;;;;6247350;23;20162;-84
2022/04/02 04:09:21;;;;;;;3.78;1.90;;;17.90;51.60;;;;;;6145441;23;20153;-82
2022/04/02 04:11:48;;;;;;;2.10;1.60;;;17.90;51.10;;;;;;6170105;23;20149;-83
2022/04/02 04:14:16;;;;;;;2.58;1.80;;;17.90;51.70;;;;;;6146127;23;20571;-85
2022/04/02 04:16:44;;;;;;;2.22;1.80;;;17.90;51.40;;;;;;6145353;23;20158;-83
2022/04/02 04:19:11;;;;;;;1.90;1.60;;;17.90;51.40;;;;;;6170145;23;20638;-86
2022/04/02 04:21:38;;;;;;;1.90;1.67;;;17.90;51.60;;;;;;6145530;23;20160;-86
2022/04/02 04:24:06;;;;;;;2.88;1.63;;;17.90;50.90;;;;;;6145095;23;20166;-85
2022/04/02 04:26:33;;;;;;;3.25;2.03;;;17.90;50.70;;;;;;6170073;23;20232;-81
2022/04/02 04:29:00;;;;;;;2.38;1.55;;;17.90;50.80;;;;;;6145345;23;20153;-86
2022/04/02 04:31:26;;;;;;;2.58;1.80;;;17.90;51.50;;;;;;6144803;23;20632;-85
2022/04/02 04:33:53;;;;;;;3.88;1.90;;;17.90;51.40;;;;;;6169923;23;20157;-89
2022/04/02 04:36:21;;;;;;;3.72;1.60;;;17.90;51.20;;;;;;6145323;23;20188;-86
2022/04/02 04:38:49;;;;;;;2.75;1.80;;;17.90;51.00;;;;;;6146781;23;20226;-84
2022/04/02 04:41:17;;;;;;;2.08;1.80;;;17.90;51.20;;;;;;6121031;23;20457;-86
2022/04/02 04:43:46;;;;;;;3.45;1.90;;;17.90;51.20;;;;;;6196348;23;20129;-88
2022/04/02 04:46:13;;;;;;;2.17;1.70;;;17.90;51.60;;;;;;6146702;23;20528;-89
2022/04/02 04:48:39;;;;;;;2.42;1.63;;;17.80;50.90;;;;;;6145197;23;20228;-88
2022/04/02 04:51:10;;;;;;;1.90;1.50;;;17.90;51.10;;;;;;6145067;23;20149;-83
2022/04/02 04:53:36;;;;;;;2.35;1.80;;;17.90;50.90;;;;;;6145372;23;20520;-85
2022/04/02 04:56:03;;;;;;;2.00;1.65;;;18.00;51.10;;;;;;6247130;23;20272;-84
2022/04/02 04:58:29;;;;;;;2.25;1.77;;;18.00;51.00;;;;;;6195512;23;20149;-84
2022/04/02 05:00:57;;;;;;;1.75;1.65;;;18.00;51.10;;;;;;6220243;23;20145;-87
2022/04/02 05:03:27;;;;;;;2.00;1.63;;;17.90;51.00;;;;;;6220390;23;20134;-86
2022/04/02 05:05:54;;;;;;;2.50;1.90;;;17.90;51.20;;;;;;6145302;23;20153;-83
2022/04/02 05:08:21;;;;;;;2.30;1.58;;;17.90;51.20;;;;;;6246866;23;20161;-88
2022/04/02 05:10:47;;;;;;;4.55;1.67;;;18.00;50.50;;;;;;6220230;23;20137;-84
2022/04/02 05:13:18;;;;;;;2.35;1.75;;;18.00;51.10;;;;;;6220495;23;20142;-86
2022/04/02 05:15:44;;;;;;;2.58;1.90;;;17.90;50.90;;;;;;6220083;23;20141;-84
2022/04/02 05:18:11;;;;;;;1.88;1.63;;;17.90;51.40;;;;;;6247228;23;20153;-86
2022/04/02 05:20:38;;;;;;;4.07;1.65;;;17.80;50.80;;;;;;6220139;23;20141;-85
2022/04/02 05:23:05;;;;;;;1.75;1.58;;;17.90;51.30;;;;;;6219923;23;20130;-86
2022/04/02 05:25:33;;;;;;;2.35;1.70;;;17.90;51.60;;;;;;6246918;23;20142;-84
2022/04/02 05:27:59;;;;;;;2.53;1.80;;;17.80;51.40;;;;;;6220257;23;20176;-84
2022/04/02 05:30:27;;;;;;;2.22;1.70;;;17.80;51.60;;;;;;6219738;23;20185;-85
2022/04/02 05:32:55;;;;;;;2.72;1.58;;;17.80;51.60;;;;;;6220245;23;20151;-84
2022/04/02 05:35:22;;;;;;;4.20;1.75;;;17.80;51.40;;;;;;6220377;23;20494;-87
2022/04/02 05:37:49;;;;;;;2.90;1.70;;;17.80;51.40;;;;;;6246549;23;20635;-82
2022/04/02 05:40:15;;;;;;;1.95;1.50;;;17.90;51.30;;;;;;6246728;23;20179;-86
2022/04/02 05:42:41;;;;;;;1.70;1.50;;;17.90;51.40;;;;;;6219639;23;20161;-86
2022/04/02 05:45:08;;;;;;;1.98;1.70;;;17.90;51.00;;;;;;6220135;23;20149;-89
2022/04/02 05:47:49;;;;;;;2.55;2.00;;;17.90;51.30;;;;;;6194654;23;20543;-81
2022/04/02 05:50:21;;;;;;;2.33;1.70;;;17.90;51.30;;;;;;6194987;23;20153;-87
2022/04/02 05:52:49;;;;;;;1.88;1.50;;;17.90;51.20;;;;;;6145241;23;20203;-88
2022/04/02 05:55:15;;;;;;;1.75;1.60;;;17.90;51.10;;;;;;6246816;23;20134;-82
2022/04/02 05:57:41;;;;;;;2.50;1.70;;;17.90;51.20;;;;;;6219890;23;20538;-82
2022/04/02 06:00:08;;;;;;;2.83;1.80;;;17.90;51.20;;;;;;6247094;23;20213;-87
2022/04/02 06:02:34;;;;;;;4.07;1.83;;;17.80;51.10;;;;;;6246830;23;20153;-83
2022/04/02 06:05:02;;;;;;;2.22;1.98;;;17.90;50.90;;;;;;6247892;23;20212;-88
2022/04/02 06:07:30;;;;;;;3.30;1.80;;;18.00;50.90;;;;;;6146009;23;20662;-86
2022/04/02 06:09:58;;;;;;;3.05;1.98;;;18.00;50.30;;;;;;6147353;23;20172;-83
2022/04/02 06:12:25;;;;;;;2.08;1.65;;;18.00;50.90;;;;;;6170652;23;20215;-84
2022/04/02 06:14:53;;;;;;;1.85;1.50;;;18.00;51.20;;;;;;6169819;23;20236;-86
2022/04/02 06:17:20;;;;;;;3.22;1.60;;;17.90;50.80;;;;;;6169838;23;20663;-85
2022/04/02 06:19:48;;;;;;;3.08;1.80;;;18.00;51.20;;;;;;6171320;23;20279;-89
2022/04/02 06:22:18;;;;;;;1.95;1.60;;;18.00;51.00;;;;;;6146150;23;20157;-83
2022/04/02 06:24:44;;;;;;;2.58;1.98;;;18.00;50.90;;;;;;6146569;23;20164;-85
2022/04/02 06:27:10;;;;;;;1.95;1.75;;;18.00;50.70;;;;;;6146126;23;20259;-88
2022/04/02 06:29:36;;;;;;;2.88;1.63;;;18.00;50.90;;;;;;6197053;23;20638;-87
2022/04/02 06:32:04;;;;;;;1.65;1.52;;;17.90;50.50;;;;;;6221504;23;20217;-85
2022/04/02 06:34:34;;;;;;;2.67;1.88;;;18.00;49.90;;;;;;6147386;23;20164;-83
2022/04/02 06:37:01;;;;;;;2.38;1.75;;;18.00;50.60;;;;;;6146387;23;20185;-85
2022/04/02 06:39:28;;;;;;;3.08;1.60;;;18.00;50.30;;;;;;6171152;23;20180;-83
2022/04/02 06:41:55;;;;;;;3.80;1.60;;;18.10;50.00;;;;;;6170968;23;20229;-90
2022/04/02 06:44:25;;;;;;;1.98;1.58;;;18.10;50.00;;;;;;6196861;23;20138;-87
2022/04/02 06:46:56;;;;;;;2.60;1.90;;;18.20;50.00;;;;;;6121938;23;20532;-85
2022/04/02 06:49:25;;;;;;;2.97;1.67;;;18.20;49.80;;;;;;6172673;23;20159;-85
2022/04/02 06:51:54;;;;;;;2.72;1.90;;;18.30;50.30;;;;;;6171126;23;20156;-83
2022/04/02 06:54:20;;;;;;;5.53;1.75;;;18.30;50.00;;;;;;6172249;23;20211;-85
2022/04/02 06:56:50;;;;;;;2.33;1.90;;;18.20;50.00;;;;;;6224502;23;20158;-84
2022/04/02 06:59:18;;;;;;;1.85;1.60;;;18.10;50.80;;;;;;6177046;23;20153;-83
2022/04/02 07:01:46;;;;;;;2.58;2.00;;;18.20;49.80;;;;;;6150862;23;20184;-81
2022/04/02 07:04:13;;;;;;;5.43;1.90;;;18.30;49.70;;;;;;6174085;23;20240;-85
2022/04/02 07:06:44;;;;;;;3.97;2.03;;;18.40;49.60;;;;;;6147288;23;20364;-86
2022/04/02 07:09:14;;;;;;;4.57;1.95;;;18.40;49.80;;;;;;6171848;23;20156;-83
2022/04/02 07:11:42;;;;;;;3.22;1.92;;;18.30;49.70;;;;;;6147509;23;20481;-83
2022/04/02 07:14:10;;;;;;;3.08;1.90;;;18.40;50.30;;;;;;6170120;23;20149;-83
2022/04/02 07:16:38;;;;;;;2.70;1.70;;;18.40;49.30;;;;;;6169010;23;20153;-83
2022/04/02 07:19:06;;;;;;;3.10;1.85;;;18.50;48.90;;;;;;6144981;23;20153;-84
2022/04/02 07:21:33;;;;;;;2.72;1.60;;;18.60;49.00;;;;;;6144276;23;20157;-85
2022/04/02 07:24:01;;;;;;;6.30;1.85;;;18.70;48.20;;;;;;6170039;23;20183;-85
2022/04/02 07:26:29;;;;;;;4.70;1.95;;;18.80;48.40;;;;;;6145587;23;20230;-82
2022/04/02 07:28:56;;;;;;;3.95;1.75;;;18.70;48.90;;;;;;6146533;23;20485;-85
2022/04/02 07:31:23;;;;;;;5.97;2.05;;;18.80;48.70;;;;;;6199833;23;20200;-84
2022/04/02 07:33:49;;;;;;;2.90;1.70;;;18.80;48.60;;;;;;6148774;23;20484;-83
2022/04/02 07:36:24;;;;;;;4.43;2.03;;;18.80;48.50;;;;;;6147158;23;20581;-89
2022/04/02 07:39:12;;;;;;;5.78;1.83;;;18.90;48.30;;;;;;6198351;23;20181;-84
2022/04/02 07:41:51;;;;;;;3.85;1.90;;;18.80;48.70;;;;;;6222877;23;20604;-81
2022/04/02 07:44:30;;;;;;;4.50;1.88;;;18.80;48.40;;;;;;6250428;23;20130;-86
2022/04/02 07:47:03;;;;;;;2.10;1.58;;;18.80;48.60;;;;;;6150042;23;20187;-85
2022/04/02 07:49:30;;;;;;;3.35;1.85;;;18.90;48.30;;;;;;6149204;23;20175;-84
2022/04/02 07:52:00;;;;;;;4.88;2.15;;;18.90;48.50;;;;;;6223424;23;20137;-86
2022/04/02 07:54:30;;;;;;;4.10;1.75;;;19.00;47.90;;;;;;6221959;23;20126;-84
2022/04/02 07:57:01;;;;;;;5.65;1.80;;;18.90;48.60;;;;;;6146805;23;20184;-87
2022/04/02 07:59:38;;;;;;;4.72;1.88;;;18.90;48.30;;;;;;6222244;23;20134;-86
2022/04/02 08:02:36;;;;;;;11.00;1.98;;;19.10;48.10;;;;;;6172641;23;20232;-86
2022/04/02 08:05:02;;;;;;;9.13;2.05;;;19.00;48.60;;;;;;6253478;23;20209;-84
2022/04/02 08:07:30;;;;;;;7.97;2.22;;;19.00;49.30;;;;;;6149230;23;20237;-86
2022/04/02 08:09:59;;;;;;;4.88;2.03;;;19.20;47.80;;;;;;6220692;23;20146;-85
2022/04/02 08:12:25;;;;;;;8.15;1.77;;;19.20;48.10;;;;;;6173426;23;20145;-86
2022/04/02 08:14:51;;;;;;;5.80;2.10;;;19.20;47.50;;;;;;6224190;23;20169;-85
2022/04/02 08:17:23;;;;;;;8.35;2.03;;;19.30;48.00;;;;;;6222475;23;20150;-88
2022/04/02 08:19:53;;;;;;;6.53;2.00;;;19.30;47.50;;;;;;6146856;23;20203;-85
2022/04/02 08:22:18;;;;;;;4.90;1.95;;;19.30;47.50;;;;;;6149877;23;20164;-85
2022/04/02 08:24:45;;;;;;;8.50;2.10;;;19.30;47.70;;;;;;6225918;23;20138;-82
2022/04/02 08:27:31;;;;;;;5.47;1.98;;;19.30;47.30;;;;;;6226805;23;20253;-85
2022/04/02 08:30:18;;;;;;;9.25;2.20;;;19.30;47.50;;;;;;6225403;23;20384;-81
2022/04/02 08:32:56;;;;;;;5.03;2.13;;;19.20;46.70;;;;;;6206636;23;20465;-83
2022/04/02 08:35:26;;;;;;;7.63;1.98;;;19.30;47.20;;;;;;6228011;23;20133;-84
2022/04/02 08:38:12;;;;;;;4.15;2.05;;;19.30;47.80;;;;;;6194540;23;20151;-84
2022/04/02 08:40:49;;;;;;;4.10;2.03;;;19.30;49.00;;;;;;6140032;23;20377;-84
2022/04/02 08:43:43;;;;;;;6.78;1.98;;;19.40;47.90;;;;;;6189330;23;20194;-84
2022/04/02 08:46:35;;;;;;;11.45;1.90;;;19.30;48.90;;;;;;6157428;23;20628;-82
2022/04/02 08:49:31;;;;;;;6.22;2.25;;;19.40;48.00;;;;;;6113527;23;20182;-85
2022/04/02 08:52:18;;;;;;;6.38;2.00;;;19.40;48.60;;;;;;6111462;23;20155;-83
2022/04/02 08:55:01;;;;;;;6.78;1.95;;;19.40;49.70;;;;;;6133166;23;20183;-81
2022/04/02 08:57:32;;;;;;;7.60;2.40;;;19.30;49.50;;;;;;6161498;23;20187;-88
2022/04/02 09:00:09;;;;;;;4.47;1.95;;;19.30;49.40;;;;;;6112939;23;20152;-85
2022/04/02 09:02:59;;;;;;;9.75;2.30;;;19.30;48.20;;;;;;6081918;23;20148;-83
2022/04/02 09:06:00;;;;;;;9.43;2.28;;;19.30;48.80;;;;;;6025311;23;20194;-85
2022/04/02 09:08:59;;;;;;;4.00;2.13;;;19.20;49.40;;;;;;6023705;23;20186;-86
2022/04/02 09:12:10;;;;;;;13.82;2.45;;;19.10;48.90;;;;;;5977052;23;20150;-82
2022/04/02 09:14:48;;;;;;;6.30;2.20;;;19.10;49.40;;;;;;6018957;23;20241;-85
2022/04/02 09:17:33;;;;;;;7.35;1.90;;;19.00;49.50;;;;;;6040399;23;20628;-88
2022/04/02 09:20:30;;;;;;;7.05;2.22;;;19.10;49.30;;;;;;6019193;23;20158;-85
2022/04/02 09:23:13;;;;;;;4.22;2.22;;;19.00;48.90;;;;;;6023501;23;20154;-87
2022/04/02 09:26:18;;;;;;;6.47;2.42;;;19.00;48.90;;;;;;6002307;23;20157;-85
2022/04/02 09:29:00;;;;;;;7.70;1.95;;;19.10;49.00;;;;;;6056090;23;20165;-85
2022/04/02 09:31:49;;;;;;;10.30;2.13;;;19.10;48.70;;;;;;6029066;23;20204;-87
2022/04/02 09:34:50;;;;;;;3.33;2.17;;;19.10;49.00;;;;;;6098506;23;20171;-87
2022/04/02 09:37:51;;;;;;;6.38;1.90;;;19.10;49.50;;;;;;6109548;23;20159;-86
2022/04/02 09:40:25;;;;;;;6.55;2.03;;;19.10;48.80;;;;;;6108835;23;20214;-86
2022/04/02 09:42:51;;;;;;;3.88;1.73;;;19.00;48.50;;;;;;6109544;23;20217;-88
2022/04/02 09:45:21;;;;;;;6.07;2.00;;;19.20;47.80;;;;;;6109329;23;20163;-87
2022/04/02 09:48:05;;;;;;;3.67;2.03;;;19.20;47.90;;;;;;6109446;23;20175;-84
2022/04/02 09:50:30;;;;;;;6.30;1.90;;;19.20;48.80;;;;;;6181039;23;20153;-84
2022/04/02 09:53:15;;;;;;;4.90;2.33;;;19.20;47.90;;;;;;6201477;23;20179;-83
2022/04/02 09:56:14;;;;;;;6.20;2.00;;;19.20;48.70;;;;;;6230363;23;20149;-83
2022/04/02 09:59:02;;;;;;;5.15;1.90;;;19.20;49.00;;;;;;6204847;23;20592;-83
2022/04/02 10:01:39;;;;;;;4.65;1.80;;;19.10;48.90;;;;;;6204789;23;20256;-86
2022/04/02 10:04:39;;;;;;;6.13;2.15;;;19.20;48.50;;;;;;6151581;23;20179;-88
2022/04/02 10:07:24;;;;;;;8.82;2.40;;;19.10;48.90;;;;;;6146792;23;20208;-85
2022/04/02 10:09:56;;;;;;;4.53;1.95;;;19.20;48.00;;;;;;6104594;23;20153;-88
2022/04/02 10:12:24;;;;;;;6.50;2.60;;;19.20;48.80;;;;;;6147241;23;20585;-83
2022/04/02 10:14:55;;;;;;;6.53;2.10;;;19.10;48.90;;;;;;6173419;23;20145;-85
2022/04/02 10:17:25;;;;;;;6.22;1.90;;;19.10;50.10;;;;;;6221849;23;20150;-85
2022/04/02 10:19:53;;;;;;;5.18;2.00;;;19.10;49.30;;;;;;6199610;23;20179;-87
2022/04/02 10:22:20;;;;;;;3.30;1.85;;;19.10;49.20;;;;;;6224025;23;20134;-85
2022/04/02 10:24:48;;;;;;;7.18;2.15;;;19.10;49.20;;;;;;6225540;23;20148;-85
2022/04/02 10:27:37;;;;;;;8.23;2.10;;;19.00;49.80;;;;;;6201428;23;20219;-85
2022/04/02 10:30:08;;;;;;;5.75;2.22;;;19.00;50.00;;;;;;6110499;23;20188;-83
2022/04/02 10:32:57;;;;;;;4.82;1.80;;;19.00;50.10;;;;;;6204480;23;20146;-87
2022/04/02 10:35:27;;;;;;;5.45;1.95;;;19.00;49.80;;;;;;6226717;23;20133;-87
2022/04/02 10:38:18;;;;;;;6.13;1.90;;;19.10;49.20;;;;;;6176816;23;20157;-86
2022/04/02 10:40:54;;;;;;;7.95;2.30;;;19.10;49.80;;;;;;6109290;23;20161;-88
2022/04/02 10:43:43;;;;;;;8.10;2.08;;;19.10;49.20;;;;;;6180585;23;20164;-83
2022/04/02 10:46:12;;;;;;;5.10;2.38;;;19.10;49.00;;;;;;6208964;23;20164;-83
2022/04/02 10:49:07;;;;;;;4.57;1.88;;;19.10;49.30;;;;;;6207607;23;20237;-82
2022/04/02 10:51:35;;;;;;;3.47;1.70;;;19.10;49.30;;;;;;6232723;23;20224;-83
2022/04/02 10:54:10;;;;;;;5.90;2.10;;;19.10;49.20;;;;;;6231163;23;20157;-87
2022/04/02 10:56:44;;;;;;;2.70;1.73;;;19.10;49.20;;;;;;6229868;23;20206;-83
2022/04/02 10:59:13;;;;;;;5.75;1.98;;;19.10;49.30;;;;;;6181345;23;20141;-84
2022/04/02 11:01:42;;;;;;;6.95;2.15;;;19.10;48.70;;;;;;6177477;23;20148;-83
2022/04/02 11:04:27;;;;;;;4.80;1.85;;;19.10;49.60;;;;;;6203086;23;20176;-83
2022/04/02 11:06:57;;;;;;;5.82;2.10;;;19.20;48.90;;;;;;6205855;23;20173;-85
2022/04/02 11:09:28;;;;;;;5.40;1.80;;;19.20;49.10;;;;;;6200820;23;20146;-84
2022/04/02 11:11:56;;;;;;;4.25;2.03;;;19.20;49.10;;;;;;6224244;23;20160;-85
2022/04/02 11:14:24;;;;;;;3.60;2.10;;;19.20;48.90;;;;;;6174713;23;20323;-85
2022/04/02 11:16:50;;;;;;;4.43;1.60;;;19.20;50.30;;;;;;6150606;23;20153;-84
2022/04/02 11:22:04;;;;;;;5.68;1.95;;;19.30;50.30;;;;;;6211323;23;20545;-84
2022/04/02 11:24:40;;;;;;;9.27;2.30;;;19.20;49.70;;;;;;6203237;23;20133;-83
2022/04/02 11:27:11;;;;;;;4.78;2.05;;;19.20;49.80;;;;;;6156683;23;20176;-83
2022/04/02 11:29:41;;;;;;;4.25;2.10;;;19.10;49.80;;;;;;6157200;23;20149;-85
2022/04/02 11:32:10;;;;;;;4.00;1.60;;;19.20;49.30;;;;;;6174301;23;20166;-84
2022/04/02 11:34:40;;;;;;;4.13;1.83;;;19.20;49.20;;;;;;6145655;23;20516;-83
2022/04/02 11:37:09;;;;;;;4.20;1.90;;;19.20;48.80;;;;;;6121039;23;20256;-82
2022/04/02 11:39:46;;;;;;;4.60;1.85;;;19.30;48.90;;;;;;6170561;23;20161;-84
2022/04/02 11:42:16;;;;;;;4.18;1.95;;;19.20;49.30;;;;;;6146999;23;20223;-83
2022/04/02 11:44:50;;;;;;;9.13;2.38;;;19.20;49.20;;;;;;6148775;23;20217;-82
2022/04/02 11:47:26;;;;;;;7.55;1.95;;;19.20;49.00;;;;;;6147199;23;20281;-83
2022/04/02 11:50:11;;;;;;;5.30;2.10;;;19.30;49.10;;;;;;6125611;23;20187;-82
2022/04/02 11:52:56;;;;;;;6.10;2.10;;;19.30;49.80;;;;;;6077332;23;20165;-83
2022/04/02 11:55:27;;;;;;;3.45;2.03;;;19.30;49.30;;;;;;6120148;23;20161;-84
2022/04/02 11:57:57;;;;;;;4.60;2.08;;;19.30;49.10;;;;;;6144102;23;20161;-86
2022/04/02 12:00:29;;;;;;;5.93;1.90;;;19.40;49.80;;;;;;6170624;23;20146;-81
2022/04/02 12:02:54;;;;;;;5.55;2.03;;;19.40;48.60;;;;;;6120699;23;20154;-84
2022/04/02 12:05:35;;;;;;;6.80;1.80;;;19.30;49.20;;;;;;6193713;23;20177;-85
2022/04/02 12:08:02;;;;;;;4.45;1.60;;;19.30;49.30;;;;;;6150763;23;20177;-82
2022/04/02 12:10:28;;;;;;;4.82;1.90;;;19.30;48.90;;;;;;6193736;23;20461;-87
2022/04/02 12:12:55;;;;;;;6.53;1.95;;;19.30;48.20;;;;;;6144428;23;20160;-86
2022/04/02 12:15:22;;;;;;;5.15;1.90;;;19.30;49.60;;;;;;6193810;23;20185;-85
2022/04/02 12:18:07;;;;;;;4.93;1.85;;;19.30;49.20;;;;;;6217876;23;20178;-86
2022/04/02 12:20:39;;;;;;;2.45;1.80;;;19.20;49.40;;;;;;6152028;23;20154;-83
2022/04/02 12:23:17;;;;;;;3.28;1.70;;;19.20;50.10;;;;;;6095892;23;20181;-82
2022/04/02 12:25:55;;;;;;;3.15;1.50;;;19.20;50.00;;;;;;6095371;23;20157;-86
2022/04/02 12:28:22;;;;;;;4.90;2.05;;;19.10;48.80;;;;;;6187871;23;20277;-83
2022/04/02 12:30:51;;;;;;;5.20;1.90;;;19.20;49.80;;;;;;6175719;23;20224;-86
2022/04/02 12:33:23;;;;;;;3.30;1.80;;;19.20;49.10;;;;;;6169912;23;20150;-87
2022/04/02 12:36:01;;;;;;;3.60;1.85;;;19.20;48.90;;;;;;6143024;23;20150;-86
2022/04/02 12:38:29;;;;;;;4.68;1.88;;;19.30;48.30;;;;;;6166462;23;20168;-83
2022/04/02 12:40:56;;;;;;;6.93;1.95;;;19.20;48.20;;;;;;6191307;23;20637;-88
2022/04/02 12:43:24;;;;;;;3.28;1.60;;;19.30;47.60;;;;;;6167698;23;20158;-85
2022/04/02 12:45:52;;;;;;;4.03;1.73;;;19.30;48.30;;;;;;6192207;23;20150;-84
2022/04/02 12:48:17;;;;;;;5.18;2.20;;;19.20;48.80;;;;;;6194144;23;20304;-84
2022/04/02 12:50:52;;;;;;;4.25;1.80;;;19.30;48.60;;;;;;6194464;23;20134;-81
2022/04/02 12:53:37;;;;;;;3.53;1.75;;;19.20;48.90;;;;;;6191885;23;20145;-87
2022/04/02 12:56:06;;;;;;;3.60;1.88;;;19.20;48.90;;;;;;6189882;23;20176;-86
2022/04/02 12:58:44;;;;;;;3.17;1.83;;;19.20;48.50;;;;;;6172255;23;20153;-83
2022/04/02 13:01:25;;;;;;;2.75;1.50;;;19.20;49.20;;;;;;6175630;23;20153;-82
2022/04/02 13:04:08;;;;;;;3.63;1.60;;;19.20;47.50;;;;;;6178913;23;20157;-86
2022/04/02 13:06:48;;;;;;;5.28;1.65;;;19.20;48.00;;;;;;6123472;23;20243;-86
2022/04/02 13:09:20;;;;;;;3.58;1.67;;;19.20;47.00;;;;;;6129078;23;20166;-85